createdAt,value
2019-05-30T00:00:41.204Z,2.61
2019-05-30T00:05:50.364Z,3.30
2019-05-30T00:11:00.606Z,4.14
2019-05-30T00:16:08.324Z,4.27
2019-05-30T00:21:17.413Z,4.30
2019-05-30T00:26:26.567Z,4.40
2019-05-30T00:31:35.654Z,5.08
2019-05-30T00:36:44.804Z,5.82
2019-05-30T00:41:53.874Z,6.97
2019-05-30T00:47:04.324Z,7.97
2019-05-30T00:52:11.684Z,8.77
2019-05-30T00:57:20.899Z,8.57
2019-05-30T01:02:29.990Z,9.72
2019-05-30T01:07:39.132Z,11.14
2019-05-30T01:12:48.222Z,8.69
2019-05-30T01:17:57.417Z,9.88
2019-05-30T01:23:07.498Z,10.52
2019-05-30T01:28:15.415Z,16.67
2019-05-30T01:33:24.460Z,9.28
2019-05-30T01:38:33.711Z,16.53
2019-05-30T01:43:42.772Z,12.87
2019-05-30T01:48:51.952Z,12.66
2019-05-30T01:54:01.043Z,16.30
2019-05-30T01:59:10.200Z,12.55
2019-05-30T02:04:19.306Z,14.68
2019-05-30T02:09:28.620Z,12.41
2019-05-30T02:14:37.694Z,19.12
2019-05-30T02:19:46.980Z,15.95
2019-05-30T02:24:56.077Z,11.87
2019-05-30T02:30:06.636Z,17.00
2019-05-30T02:35:13.854Z,17.36
2019-05-30T02:40:23.021Z,15.10
2019-05-30T02:45:32.098Z,18.81
2019-05-30T02:50:41.362Z,18.06
2019-05-30T02:55:49.207Z,15.64
2019-05-30T03:00:58.459Z,25.35
2019-05-30T03:06:09.268Z,18.93
2019-05-30T03:11:16.322Z,20.28
2019-05-30T03:16:25.416Z,20.58
2019-05-30T03:21:34.687Z,21.85
2019-05-30T03:26:46.043Z,27.92
2019-05-30T03:31:45.293Z,28.27
2019-05-30T03:36:54.344Z,27.17
2019-05-30T03:42:04.531Z,33.27
2019-05-30T03:47:13.414Z,32.68
2019-05-30T03:52:20.928Z,37.00
2019-05-30T03:57:29.979Z,41.39
2019-05-30T04:02:56.133Z,38.50
2019-05-30T04:07:47.823Z,25.36
2019-05-30T04:12:56.979Z,38.22
2019-05-30T04:18:06.983Z,31.25
2019-05-30T04:23:15.306Z,39.38
2019-05-30T04:28:23.385Z,32.31
2019-05-30T04:33:33.718Z,27.98
2019-05-30T04:38:41.156Z,30.74
2019-05-30T04:43:50.316Z,24.64
2019-05-30T04:48:59.408Z,31.99
2019-05-30T04:54:10.199Z,36.23
2019-05-30T04:59:19.263Z,35.97
2019-05-30T05:04:25.999Z,35.11
2019-05-30T05:09:35.093Z,34.06
2019-05-30T05:14:44.250Z,35.64
2019-05-30T05:19:53.335Z,28.03
2019-05-30T05:25:02.502Z,25.82
2019-05-30T05:30:11.610Z,31.51
2019-05-30T05:35:20.971Z,28.33
2019-05-30T05:40:29.952Z,26.37
2019-05-30T05:45:39.230Z,26.26
2019-05-30T05:50:48.333Z,21.98
2019-05-30T05:55:57.470Z,18.29
2019-05-30T06:01:06.573Z,17.88
2019-05-30T06:06:15.706Z,17.84
2019-05-30T06:11:24.830Z,15.44
2019-05-30T06:16:33.977Z,15.56
2019-05-30T06:21:53.525Z,15.15
2019-05-30T06:26:51.908Z,16.50
2019-05-30T06:32:00.976Z,15.36
2019-05-30T06:37:12.140Z,12.70
2019-05-30T06:42:19.550Z,15.37
2019-05-30T06:47:28.457Z,11.20
2019-05-30T06:52:36.180Z,10.52
2019-05-30T06:57:45.310Z,11.87
2019-05-30T07:02:54.418Z,10.96
2019-05-30T07:08:03.569Z,11.93
2019-05-30T07:13:12.613Z,10.76
2019-05-30T07:18:21.899Z,11.39
2019-05-30T07:23:32.017Z,9.62
2019-05-30T07:28:39.770Z,11.62
2019-05-30T07:33:48.852Z,10.48
2019-05-30T07:38:58.104Z,9.72
2019-05-30T07:44:07.246Z,12.00
2019-05-30T07:49:16.480Z,8.55
2019-05-30T07:54:26.736Z,9.24
2019-05-30T07:59:34.631Z,8.14
2019-05-30T08:04:46.215Z,9.98
2019-05-30T08:09:51.646Z,8.56
2019-05-30T08:15:00.747Z,9.71
2019-05-30T08:20:09.920Z,10.34
2019-05-30T08:25:19.025Z,9.75
2019-05-30T08:30:28.346Z,9.42
2019-05-30T08:35:46.696Z,10.48
2019-05-30T08:40:45.951Z,8.23
2019-05-30T08:45:55.110Z,8.78
2019-05-30T08:51:04.404Z,9.79
2019-05-30T08:56:13.478Z,9.33
2019-05-30T09:01:22.680Z,8.83
2019-05-30T09:06:31.770Z,7.51
2019-05-30T09:11:42.245Z,6.54
2019-05-30T09:16:50.761Z,7.38
2019-05-30T09:21:58.369Z,9.61
2019-05-30T09:27:07.435Z,8.73
2019-05-30T09:32:16.606Z,8.93
2019-05-30T09:37:25.735Z,8.59
2019-05-30T09:42:34.880Z,7.07
2019-05-30T09:47:45.306Z,8.78
2019-05-30T09:52:52.682Z,7.42
2019-05-30T09:58:01.881Z,6.75
2019-05-30T10:03:11.084Z,7.70
2019-05-30T10:08:20.230Z,9.39
2019-05-30T10:13:29.512Z,7.69
2019-05-30T10:18:38.625Z,8.86
2019-05-30T10:23:49.280Z,6.92
2019-05-30T10:28:57.398Z,9.03
2019-05-30T10:34:05.360Z,9.78
2019-05-30T10:39:14.483Z,8.60
2019-05-30T10:44:23.734Z,9.24
2019-05-30T10:49:35.058Z,8.22
2019-05-30T10:54:41.584Z,8.16
2019-05-30T10:59:50.855Z,10.03
2019-05-30T11:04:59.824Z,8.48
2019-05-30T11:10:08.925Z,9.02
2019-05-30T11:15:18.162Z,10.27
2019-05-30T11:20:27.267Z,11.53
2019-05-30T11:25:36.487Z,8.24
2019-05-30T11:30:45.611Z,8.51
2019-05-30T11:35:55.092Z,8.89
2019-05-30T11:41:03.417Z,8.92
2019-05-30T11:46:12.893Z,8.50
2019-05-30T11:51:22.053Z,6.02
2019-05-30T11:56:31.237Z,8.37
2019-05-30T12:01:40.416Z,5.77
2019-05-30T12:06:51.105Z,6.70
2019-05-30T12:11:59.244Z,5.80
2019-05-30T12:17:06.961Z,8.12
2019-05-30T12:22:16.097Z,7.82
2019-05-30T12:27:25.238Z,4.85
2019-05-30T12:32:34.366Z,4.85
2019-05-30T12:37:54.174Z,5.55
2019-05-30T12:42:55.535Z,4.25
2019-05-30T12:48:01.302Z,5.97
2019-05-30T12:53:10.049Z,4.64
2019-05-30T12:58:19.376Z,4.35
2019-05-30T13:03:28.499Z,5.04
2019-05-30T13:08:37.688Z,5.66
2019-05-30T13:13:46.853Z,7.50
2019-05-30T13:18:55.994Z,6.36
2019-05-30T13:24:06.003Z,5.31
2019-05-30T13:29:13.763Z,6.05
2019-05-30T13:34:22.906Z,6.02
2019-05-30T13:39:32.066Z,6.16
2019-05-30T13:44:41.159Z,5.48
2019-05-30T13:49:50.371Z,6.11
2019-05-30T13:54:59.464Z,6.92
2019-05-30T14:00:08.636Z,7.34
2019-05-30T14:05:17.780Z,8.21
2019-05-30T14:10:26.908Z,9.39
2019-05-30T14:15:35.990Z,7.29
2019-05-30T14:20:45.198Z,7.05
2019-05-30T14:25:54.306Z,5.64
2019-05-30T14:31:04.961Z,5.38
2019-05-30T14:36:14.250Z,7.40
2019-05-30T14:41:20.887Z,5.09
2019-05-30T14:46:29.985Z,6.30
2019-05-30T14:51:39.146Z,5.09
2019-05-30T14:56:48.291Z,4.69
2019-05-30T15:01:57.420Z,4.86
2019-05-30T15:07:07.417Z,3.90
2019-05-30T15:12:15.224Z,4.44
2019-05-30T15:17:24.319Z,4.53
2019-05-30T15:22:33.510Z,4.36
2019-05-30T15:27:43.824Z,4.54
2019-05-30T15:32:43.843Z,4.79
2019-05-30T15:37:52.804Z,5.13
2019-05-30T15:43:02.005Z,5.43
2019-05-30T15:48:12.254Z,5.01
2019-05-30T15:53:19.910Z,4.45
2019-05-30T15:58:29.032Z,5.08
2019-05-30T16:03:38.185Z,4.27
2019-05-30T16:08:47.285Z,4.12
2019-05-30T16:13:56.515Z,3.98
2019-05-30T16:19:15.508Z,4.26
2019-05-30T16:24:14.582Z,4.03
2019-05-30T16:29:23.534Z,4.30
2019-05-30T16:34:33.000Z,4.27
2019-05-30T16:39:41.997Z,4.49
2019-05-30T16:44:51.480Z,5.50
2019-05-30T16:50:00.493Z,5.23
2019-05-30T16:55:09.716Z,5.37
2019-05-30T17:00:19.935Z,4.84
2019-05-30T17:05:27.495Z,6.15
2019-05-30T17:10:36.599Z,5.69
2019-05-30T17:15:45.869Z,6.18
2019-05-30T17:20:54.982Z,5.79
2019-05-30T17:26:04.194Z,6.19
2019-05-30T17:31:13.295Z,6.22
2019-05-30T17:36:22.604Z,5.82
2019-05-30T17:41:31.750Z,6.35
2019-05-30T17:46:40.899Z,5.41
2019-05-30T17:51:50.059Z,5.78
2019-05-30T17:56:59.370Z,6.41
2019-05-30T18:02:08.478Z,6.31
2019-05-30T18:07:17.741Z,5.76
2019-05-30T18:12:27.104Z,5.77
2019-05-30T18:17:35.992Z,6.38
2019-05-30T18:22:45.094Z,6.41
2019-05-30T18:27:54.350Z,5.58
2019-05-30T18:33:03.675Z,5.38
2019-05-30T18:38:12.866Z,4.91
2019-05-30T18:43:22.643Z,4.95
2019-05-30T18:48:31.544Z,4.85
2019-05-30T18:53:39.329Z,5.60
2019-05-30T18:58:48.550Z,5.15
2019-05-30T19:03:57.658Z,4.67
2019-05-30T19:09:06.988Z,5.49
2019-05-30T19:14:19.090Z,5.78
2019-05-30T19:19:18.267Z,3.80
2019-05-30T19:24:28.147Z,4.89
2019-05-30T19:29:37.052Z,5.32
2019-05-30T19:34:44.806Z,5.45
2019-05-30T19:39:54.114Z,4.81
2019-05-30T19:45:03.203Z,5.16
2019-05-30T19:50:12.409Z,5.57
2019-05-30T19:55:21.771Z,5.44
2019-05-30T20:00:31.966Z,5.62
2019-05-30T20:05:40.904Z,5.65
2019-05-30T20:10:48.617Z,5.14
2019-05-30T20:15:56.308Z,5.79
2019-05-30T20:21:05.772Z,5.13
2019-05-30T20:26:15.043Z,5.81
2019-05-30T20:31:22.918Z,5.28
2019-05-30T20:36:32.269Z,6.03
2019-05-30T20:41:41.527Z,5.68
2019-05-30T20:46:50.642Z,5.53
2019-05-30T20:51:59.792Z,5.72
2019-05-30T20:57:08.901Z,6.39
2019-05-30T21:02:18.057Z,5.96
2019-05-30T21:07:27.130Z,5.60
2019-05-30T21:12:37.735Z,6.07
2019-05-30T21:17:46.081Z,5.71
2019-05-30T21:22:53.837Z,5.82
2019-05-30T21:28:02.942Z,6.10
2019-05-30T21:33:12.362Z,5.69
2019-05-30T21:38:21.377Z,6.48
2019-05-30T21:43:30.566Z,6.24
2019-05-30T21:48:40.810Z,6.56
2019-05-30T21:53:48.366Z,6.25
2019-05-30T21:58:57.475Z,6.86
2019-05-30T22:04:06.834Z,6.50
2019-05-30T22:09:15.922Z,6.43
2019-05-30T22:14:25.346Z,6.84
2019-05-30T22:19:34.486Z,7.53
2019-05-30T22:24:44.203Z,6.92
2019-05-30T22:29:52.686Z,6.92
2019-05-30T22:35:01.748Z,8.06
2019-05-30T22:40:10.839Z,7.63
2019-05-30T22:45:19.971Z,7.02
2019-05-30T22:50:29.074Z,8.26
2019-05-30T22:55:38.267Z,8.19
2019-05-30T23:00:47.866Z,7.92
2019-05-30T23:05:56.030Z,8.05
2019-05-30T23:11:05.111Z,7.88
2019-05-30T23:16:14.258Z,8.47
2019-05-30T23:21:23.350Z,8.43
2019-05-30T23:26:32.499Z,8.34
2019-05-30T23:31:41.554Z,9.02
2019-05-30T23:36:50.703Z,8.34
2019-05-30T23:41:59.781Z,9.89
2019-05-30T23:47:08.932Z,10.10
2019-05-30T23:52:17.994Z,9.35
2019-05-30T23:57:27.115Z,8.34
